Time;durP1;ratioP1;P1;durP2;ratioP2;P2;SDS_P1;SDS_P2;PMS_P1;PMS_P2;Temp;Humidity;BMP_temperature;BMP_pressure;BME280_temperature;BME280_humidity;BME280_pressure;Samples;Min_cycle;Max_cycle;Signal;HPM_P1;HPM_P2
2022/09/11 00:01:14;;;;;;;9.88;5.70;;;;;;;;;;5009530;28;20071;-76
2022/09/11 00:03:43;;;;;;;8.53;5.67;;;;;;;;;;5031709;28;20828;-77
2022/09/11 00:06:11;;;;;;;8.88;5.25;;;;;;;;;;4997951;28;20042;-79
2022/09/11 00:08:39;;;;;;;7.93;5.40;;;;;;;;;;5012446;28;20042;-79
2022/09/11 00:11:06;;;;;;;;;;;;;;;;;;5011945;28;20493;-77
2022/09/11 00:13:32;;;;;;;9.75;5.10;;;;;;;;;;4996182;28;19924;-78
2022/09/11 00:15:57;;;;;;;9.93;5.32;;;;;;;;;;5011221;28;20388;-77
2022/09/11 00:18:28;;;;;;;8.13;5.47;;;;;;;;;;5010800;28;20045;-79
2022/09/11 00:20:55;;;;;;;7.72;5.32;;;;;;;;;;5010003;28;20030;-77
2022/09/11 00:23:23;;;;;;;9.25;4.88;;;;;;;;;;5027294;28;20029;-78
2022/09/11 00:25:48;;;;;;;;;;;;;;;;;;5012141;28;20052;-77
2022/09/11 00:28:18;;;;;;;7.72;4.82;;;;;;;;;;5011106;28;19913;-78
2022/09/11 00:30:47;;;;;;;7.57;5.35;;;;;;;;;;5008228;28;20062;-77
2022/09/11 00:33:14;;;;;;;9.05;5.05;;;;;;;;;;5009893;28;20037;-78
2022/09/11 00:35:40;;;;;;;7.18;4.78;;;;;;;;;;5002368;28;20124;-77
2022/09/11 00:38:07;;;;;;;7.70;4.60;;;;;;;;;;4990851;28;20088;-79
2022/09/11 00:40:43;;;;;;;9.13;4.93;;;;;;;;;;5008741;28;20120;-77
2022/09/11 00:43:09;;;;;;;6.80;5.00;;;;;;;;;;5009918;28;20367;-78
2022/09/11 00:45:34;;;;;;;6.97;5.05;;;;;;;;;;4993314;28;20040;-76
2022/09/11 00:48:00;;;;;;;7.88;5.20;;;;;;;;;;4997020;28;20088;-77
2022/09/11 00:50:28;;;;;;;7.88;4.93;;;;;;;;;;4993270;28;20655;-77
2022/09/11 00:52:55;;;;;;;;;;;;;;;;;;5002011;28;20486;-76
2022/09/11 00:55:21;;;;;;;;;;;;;;;;;;5026118;28;19925;-77
2022/09/11 00:57:57;;;;;;;6.18;4.53;;;;;;;;;;5010006;28;19914;-76
2022/09/11 01:00:23;;;;;;;7.47;5.15;;;;;;;;;;5008129;28;20108;-76
2022/09/11 01:02:50;;;;;;;6.53;4.72;;;;;;;;;;5001354;28;20207;-77
2022/09/11 01:05:17;;;;;;;7.35;4.72;;;;;;;;;;4992543;28;20788;-76
2022/09/11 01:07:45;;;;;;;7.82;4.82;;;;;;;;;;5003781;28;20034;-77
2022/09/11 01:10:11;;;;;;;;;;;;;;;;;;5001698;28;20065;-77
2022/09/11 01:13:05;;;;;;;6.88;4.35;;;;;;;;;;5010132;28;19913;-78
2022/09/11 01:16:03;;;;;;;6.47;4.75;;;;;;;;;;5016414;28;20061;-77
2022/09/11 01:18:40;;;;;;;8.60;5.05;;;;;;;;;;5008264;28;20486;-78
2022/09/11 01:21:35;;;;;;;7.10;4.88;;;;;;;;;;5003403;28;20029;-77
2022/09/11 01:24:18;;;;;;;7.88;4.80;;;;;;;;;;5009487;28;20034;-77
2022/09/11 01:27:22;;;;;;;7.68;4.90;;;;;;;;;;5008664;28;20128;-77
2022/09/11 01:29:54;;;;;;;12.80;5.05;;;;;;;;;;4985624;28;20044;-77
2022/09/11 01:32:42;;;;;;;9.32;4.82;;;;;;;;;;4994393;28;20037;-77
2022/09/11 01:35:26;;;;;;;7.95;5.03;;;;;;;;;;5005030;28;20128;-78
2022/09/11 01:38:02;;;;;;;7.78;4.93;;;;;;;;;;4988924;28;20109;-77
2022/09/11 01:40:52;;;;;;;6.68;4.85;;;;;;;;;;5004920;28;20033;-77
2022/09/11 01:43:29;;;;;;;7.20;4.88;;;;;;;;;;5008845;28;20044;-77
2022/09/11 01:45:58;;;;;;;8.52;4.75;;;;;;;;;;5010060;28;20034;-79
2022/09/11 01:48:37;;;;;;;7.40;4.93;;;;;;;;;;4994236;28;20053;-79
2022/09/11 01:51:05;;;;;;;8.77;4.93;;;;;;;;;;5002119;28;20041;-78
2022/09/11 01:53:36;;;;;;;10.00;5.35;;;;;;;;;;5005263;28;20037;-78
2022/09/11 01:56:12;;;;;;;6.78;4.90;;;;;;;;;;5002771;28;20033;-77
2022/09/11 01:58:38;;;;;;;8.90;5.10;;;;;;;;;;5009966;28;20033;-76
2022/09/11 02:01:11;;;;;;;7.55;5.07;;;;;;;;;;4991259;28;20042;-78
2022/09/11 02:03:41;;;;;;;8.52;4.95;;;;;;;;;;4993826;28;20088;-77
2022/09/11 02:06:12;;;;;;;8.57;4.70;;;;;;;;;;5007320;28;20050;-78
2022/09/11 02:08:42;;;;;;;7.60;4.75;;;;;;;;;;5008858;28;20054;-77
2022/09/11 02:11:13;;;;;;;8.43;5.40;;;;;;;;;;5001740;28;20037;-76
2022/09/11 02:14:02;;;;;;;7.63;5.03;;;;;;;;;;4986812;28;20049;-78
2022/09/11 02:16:48;;;;;;;8.73;5.15;;;;;;;;;;5005220;28;20037;-77
2022/09/11 02:19:16;;;;;;;7.68;4.85;;;;;;;;;;5007940;28;20035;-76
2022/09/11 02:21:52;;;;;;;10.02;5.28;;;;;;;;;;5008193;28;20030;-76
2022/09/11 02:24:18;;;;;;;7.75;5.05;;;;;;;;;;5008449;28;20021;-76
2022/09/11 02:26:57;;;;;;;8.02;5.40;;;;;;;;;;4985975;28;20039;-76
2022/09/11 02:29:23;;;;;;;7.57;5.22;;;;;;;;;;5004670;28;20381;-76
2022/09/11 02:31:49;;;;;;;8.02;5.07;;;;;;;;;;5001457;28;20041;-78
2022/09/11 02:34:14;;;;;;;9.02;5.38;;;;;;;;;;4991847;28;20117;-77
2022/09/11 02:36:40;;;;;;;7.20;5.68;;;;;;;;;;4993365;28;21044;-76
2022/09/11 02:39:26;;;;;;;8.25;6.00;;;;;;;;;;5003224;28;20087;-76
2022/09/11 02:42:07;;;;;;;7.50;5.20;;;;;;;;;;5021614;28;20534;-77
2022/09/11 02:44:36;;;;;;;7.18;5.00;;;;;;;;;;5024460;28;20271;-77
2022/09/11 02:47:22;;;;;;;8.63;5.20;;;;;;;;;;5023630;28;20444;-76
2022/09/11 02:49:56;;;;;;;8.52;5.63;;;;;;;;;;4995314;28;20034;-77
2022/09/11 02:52:31;;;;;;;10.32;5.47;;;;;;;;;;5006277;28;20034;-77
2022/09/11 02:55:06;;;;;;;8.27;5.82;;;;;;;;;;5007032;28;20362;-76
2022/09/11 02:57:37;;;;;;;8.70;5.65;;;;;;;;;;5004718;28;20045;-78
2022/09/11 03:00:05;;;;;;;8.65;5.75;;;;;;;;;;5000064;28;20035;-77
2022/09/11 03:02:36;;;;;;;10.02;5.57;;;;;;;;;;5007935;28;20037;-76
2022/09/11 03:05:02;;;;;;;8.43;5.30;;;;;;;;;;4995813;28;20574;-78
2022/09/11 03:07:28;;;;;;;7.03;5.45;;;;;;;;;;5008554;28;20044;-76
2022/09/11 03:09:53;;;;;;;10.43;5.60;;;;;;;;;;5008270;28;20113;-77
2022/09/11 03:12:19;;;;;;;9.52;5.10;;;;;;;;;;5008832;28;20080;-76
2022/09/11 03:14:44;;;;;;;8.90;5.65;;;;;;;;;;4991626;28;20033;-76
2022/09/11 03:17:10;;;;;;;11.38;5.85;;;;;;;;;;5000438;28;20719;-77
2022/09/11 03:19:38;;;;;;;7.65;5.50;;;;;;;;;;5008127;28;20125;-77
2022/09/11 03:22:03;;;;;;;9.38;5.55;;;;;;;;;;4996477;28;20034;-78
2022/09/11 03:24:29;;;;;;;8.98;5.63;;;;;;;;;;5007998;28;20052;-76
2022/09/11 03:26:54;;;;;;;10.80;5.93;;;;;;;;;;4986167;28;20042;-77
2022/09/11 03:29:20;;;;;;;9.80;5.78;;;;;;;;;;5000262;28;20069;-77
2022/09/11 03:31:46;;;;;;;11.82;6.32;;;;;;;;;;5005914;28;20034;-76
2022/09/11 03:34:11;;;;;;;10.07;5.95;;;;;;;;;;5009301;28;20030;-76
2022/09/11 03:36:39;;;;;;;10.77;5.80;;;;;;;;;;5001683;28;20037;-77
2022/09/11 03:39:04;;;;;;;11.77;6.30;;;;;;;;;;5003387;28;20465;-78
2022/09/11 03:41:30;;;;;;;10.85;7.28;;;;;;;;;;5007118;28;20034;-77
2022/09/11 03:43:56;;;;;;;11.80;7.50;;;;;;;;;;4991346;28;20129;-77
2022/09/11 03:46:23;;;;;;;10.70;7.47;;;;;;;;;;5005143;28;20030;-76
2022/09/11 03:48:48;;;;;;;11.93;8.13;;;;;;;;;;5008072;28;20053;-76
2022/09/11 03:51:16;;;;;;;13.43;7.57;;;;;;;;;;5006940;28;20080;-76
2022/09/11 03:53:43;;;;;;;11.85;8.15;;;;;;;;;;5006443;28;20038;-77
2022/09/11 03:56:09;;;;;;;11.73;7.88;;;;;;;;;;5023897;28;20033;-76
2022/09/11 03:58:35;;;;;;;11.73;7.95;;;;;;;;;;5009079;28;20053;-77
2022/09/11 04:01:00;;;;;;;11.95;8.02;;;;;;;;;;5002005;28;20030;-76
2022/09/11 04:03:26;;;;;;;12.35;8.63;;;;;;;;;;5003386;28;20033;-77
2022/09/11 04:05:56;;;;;;;13.75;8.57;;;;;;;;;;5026866;28;20038;-77
2022/09/11 04:08:22;;;;;;;15.98;9.93;;;;;;;;;;5010567;28;20033;-76
2022/09/11 04:10:48;;;;;;;13.88;9.68;;;;;;;;;;5001476;28;20460;-76
2022/09/11 04:13:15;;;;;;;12.93;9.63;;;;;;;;;;4998971;28;20398;-76
2022/09/11 04:15:41;;;;;;;15.93;10.63;;;;;;;;;;5004274;28;20049;-76
2022/09/11 04:18:07;;;;;;;15.93;10.45;;;;;;;;;;4992708;28;20034;-78
2022/09/11 04:20:32;;;;;;;15.75;10.70;;;;;;;;;;5009917;28;20030;-78
2022/09/11 04:22:58;;;;;;;18.10;10.10;;;;;;;;;;4999022;28;20125;-77
2022/09/11 04:25:23;;;;;;;14.00;9.45;;;;;;;;;;4994242;28;20040;-77
2022/09/11 04:27:49;;;;;;;15.00;9.10;;;;;;;;;;4997397;28;20366;-76
2022/09/11 04:30:14;;;;;;;16.95;9.88;;;;;;;;;;4996256;28;20474;-77
2022/09/11 04:32:40;;;;;;;14.68;8.73;;;;;;;;;;5027015;28;20125;-78
2022/09/11 04:35:06;;;;;;;17.75;9.18;;;;;;;;;;4999201;28;20049;-77
2022/09/11 04:37:34;;;;;;;19.17;9.77;;;;;;;;;;4993979;28;20041;-77
2022/09/11 04:39:59;;;;;;;20.30;9.98;;;;;;;;;;5001252;28;20045;-77
2022/09/11 04:42:25;;;;;;;22.15;10.35;;;;;;;;;;5009162;28;20038;-78
2022/09/11 04:44:50;;;;;;;20.17;10.55;;;;;;;;;;5011379;28;20065;-76
2022/09/11 04:47:17;;;;;;;22.60;10.93;;;;;;;;;;4993343;28;20088;-76
2022/09/11 04:49:45;;;;;;;23.87;11.30;;;;;;;;;;5002644;28;20540;-76
2022/09/11 04:52:11;;;;;;;19.73;10.77;;;;;;;;;;5008129;28;20277;-77
2022/09/11 04:54:36;;;;;;;23.55;10.73;;;;;;;;;;4997039;28;20148;-76
2022/09/11 04:57:03;;;;;;;22.33;10.90;;;;;;;;;;5010451;28;20029;-77
2022/09/11 04:59:28;;;;;;;23.40;11.40;;;;;;;;;;4992874;28;20046;-78
2022/09/11 05:01:56;;;;;;;22.02;11.30;;;;;;;;;;4997291;28;20036;-77
2022/09/11 05:04:21;;;;;;;23.08;11.40;;;;;;;;;;4994501;28;20057;-76
2022/09/11 05:06:47;;;;;;;22.27;10.93;;;;;;;;;;5013536;28;20034;-78
2022/09/11 05:09:14;;;;;;;24.73;12.15;;;;;;;;;;5013878;28;20040;-76
2022/09/11 05:11:40;;;;;;;23.10;12.20;;;;;;;;;;5012254;28;20116;-76
2022/09/11 05:14:06;;;;;;;21.13;11.38;;;;;;;;;;5015887;28;20429;-78
2022/09/11 05:16:33;;;;;;;21.95;11.25;;;;;;;;;;4979278;28;20124;-78
2022/09/11 05:18:58;;;;;;;22.00;11.75;;;;;;;;;;5012188;28;20040;-77
2022/09/11 05:21:25;;;;;;;22.27;12.07;;;;;;;;;;5002613;28;20029;-76
2022/09/11 05:23:53;;;;;;;22.73;11.27;;;;;;;;;;5029741;28;20037;-77
2022/09/11 05:26:22;;;;;;;21.33;12.07;;;;;;;;;;5012635;28;20400;-76
2022/09/11 05:28:53;;;;;;;21.90;11.35;;;;;;;;;;5003227;28;20061;-76
2022/09/11 05:31:18;;;;;;;24.10;12.25;;;;;;;;;;5000444;28;20415;-77
2022/09/11 05:33:47;;;;;;;24.67;12.30;;;;;;;;;;5003180;28;20137;-77
2022/09/11 05:36:17;;;;;;;21.90;12.60;;;;;;;;;;5010052;28;20548;-75
2022/09/11 05:38:43;;;;;;;24.50;12.40;;;;;;;;;;5005107;28;20515;-77
2022/09/11 05:41:10;;;;;;;21.67;11.88;;;;;;;;;;5010237;28;20033;-77
2022/09/11 05:43:36;;;;;;;23.17;11.90;;;;;;;;;;5001037;28;20029;-76
2022/09/11 05:46:02;;;;;;;23.73;11.73;;;;;;;;;;5011945;28;20060;-77
2022/09/11 05:48:29;;;;;;;22.13;11.85;;;;;;;;;;5012587;28;20048;-76
2022/09/11 05:50:59;;;;;;;24.42;12.07;;;;;;;;;;4991323;28;20044;-77
2022/09/11 05:53:26;;;;;;;25.02;12.95;;;;;;;;;;5012223;28;20041;-77
2022/09/11 05:55:52;;;;;;;26.98;11.98;;;;;;;;;;5000188;28;20541;-76
2022/09/11 05:58:18;;;;;;;24.95;12.65;;;;;;;;;;4996981;28;20038;-77
2022/09/11 06:00:47;;;;;;;25.05;13.07;;;;;;;;;;4983714;28;20036;-77
2022/09/11 06:03:13;;;;;;;24.63;12.45;;;;;;;;;;5028589;28;20033;-77
2022/09/11 06:05:39;;;;;;;24.48;12.75;;;;;;;;;;5028614;28;20091;-78
2022/09/11 06:08:05;;;;;;;23.23;12.57;;;;;;;;;;5006906;28;20029;-78
2022/09/11 06:10:31;;;;;;;25.83;13.55;;;;;;;;;;4995513;28;20038;-76
2022/09/11 06:12:58;;;;;;;26.23;13.20;;;;;;;;;;5029151;28;20128;-77
2022/09/11 06:15:24;;;;;;;27.42;13.52;;;;;;;;;;4988191;28;20133;-77
2022/09/11 06:17:49;;;;;;;28.77;13.05;;;;;;;;;;5024441;28;20044;-77
2022/09/11 06:20:18;;;;;;;24.42;13.23;;;;;;;;;;5011421;28;20037;-76
2022/09/11 06:22:43;;;;;;;25.17;13.52;;;;;;;;;;5011298;28;20040;-76
2022/09/11 06:25:08;;;;;;;24.92;13.65;;;;;;;;;;5000078;28;20033;-78
2022/09/11 06:27:37;;;;;;;25.60;13.77;;;;;;;;;;4994264;28;20045;-76
2022/09/11 06:30:03;;;;;;;24.33;13.32;;;;;;;;;;5007935;28;20116;-77
2022/09/11 06:32:28;;;;;;;27.98;14.55;;;;;;;;;;4980964;28;20049;-79
2022/09/11 06:34:54;;;;;;;27.63;14.98;;;;;;;;;;4987689;28;20477;-76
2022/09/11 06:37:20;;;;;;;29.42;14.32;;;;;;;;;;4994509;28;20036;-78
2022/09/11 06:39:45;;;;;;;24.98;14.00;;;;;;;;;;5011374;28;20033;-77
2022/09/11 06:42:11;;;;;;;24.17;13.13;;;;;;;;;;4991234;28;20113;-77
2022/09/11 06:44:37;;;;;;;23.92;13.43;;;;;;;;;;5028966;28;20124;-77
2022/09/11 06:47:02;;;;;;;23.75;13.27;;;;;;;;;;4988397;28;20113;-76
2022/09/11 06:49:31;;;;;;;24.92;13.75;;;;;;;;;;4989122;28;20090;-76
2022/09/11 06:51:56;;;;;;;21.13;12.35;;;;;;;;;;5010503;28;20128;-76
2022/09/11 06:54:22;;;;;;;24.23;12.50;;;;;;;;;;5005663;28;20122;-76
2022/09/11 06:56:47;;;;;;;20.15;12.52;;;;;;;;;;5009461;28;20033;-77
2022/09/11 06:59:13;;;;;;;23.67;12.55;;;;;;;;;;5011319;28;20033;-80
2022/09/11 07:01:38;;;;;;;20.60;12.27;;;;;;;;;;5010427;28;20037;-76
2022/09/11 07:04:04;;;;;;;19.83;11.75;;;;;;;;;;5001072;28;20041;-76
2022/09/11 07:06:30;;;;;;;20.50;11.95;;;;;;;;;;5009786;28;20112;-79
2022/09/11 07:09:00;;;;;;;20.17;11.88;;;;;;;;;;5011186;28;20038;-78
2022/09/11 07:11:26;;;;;;;19.08;10.63;;;;;;;;;;4993913;28;20065;-77
2022/09/11 07:13:52;;;;;;;18.13;10.95;;;;;;;;;;5002153;28;20037;-77
2022/09/11 07:16:18;;;;;;;18.48;11.98;;;;;;;;;;4995031;28;20392;-78
2022/09/11 07:18:49;;;;;;;20.55;11.75;;;;;;;;;;5009519;28;20040;-76
2022/09/11 07:21:21;;;;;;;20.23;10.80;;;;;;;;;;5010819;28;20057;-76
2022/09/11 07:23:53;;;;;;;17.20;10.88;;;;;;;;;;5028453;28;20033;-79
2022/09/11 07:26:19;;;;;;;17.20;10.98;;;;;;;;;;4990819;28;20500;-76
2022/09/11 07:28:47;;;;;;;16.88;10.68;;;;;;;;;;4990893;28;20120;-76
2022/09/11 07:31:15;;;;;;;16.63;9.70;;;;;;;;;;5010561;28;20033;-76
2022/09/11 07:33:44;;;;;;;16.25;10.10;;;;;;;;;;5006135;28;20455;-77
2022/09/11 07:36:15;;;;;;;18.13;10.38;;;;;;;;;;5010605;28;20085;-77
2022/09/11 07:38:42;;;;;;;13.95;9.10;;;;;;;;;;5000352;28;20400;-76
2022/09/11 07:41:08;;;;;;;16.47;10.23;;;;;;;;;;4995235;28;20037;-76
2022/09/11 07:43:37;;;;;;;14.93;9.50;;;;;;;;;;4998594;28;20393;-76
2022/09/11 07:46:05;;;;;;;16.25;9.02;;;;;;;;;;5030086;28;20052;-77
2022/09/11 07:48:30;;;;;;;16.05;9.82;;;;;;;;;;5011923;28;20472;-76
2022/09/11 07:50:57;;;;;;;14.10;9.55;;;;;;;;;;4997382;28;20080;-77
2022/09/11 07:53:24;;;;;;;16.27;9.63;;;;;;;;;;5032753;28;20037;-77
2022/09/11 07:55:50;;;;;;;16.77;9.50;;;;;;;;;;5014274;28;20036;-77
2022/09/11 07:58:17;;;;;;;16.75;10.10;;;;;;;;;;5013989;28;20388;-76
2022/09/11 08:00:42;;;;;;;13.98;8.48;;;;;;;;;;5031112;28;20038;-77
2022/09/11 08:03:08;;;;;;;13.05;7.72;;;;;;;;;;5014483;28;20049;-75
2022/09/11 08:05:33;;;;;;;13.15;8.52;;;;;;;;;;5030785;28;20041;-77
2022/09/11 08:07:59;;;;;;;14.60;7.78;;;;;;;;;;5014463;28;20488;-76
2022/09/11 08:10:24;;;;;;;11.38;7.13;;;;;;;;;;4996803;28;20029;-77
2022/09/11 08:12:51;;;;;;;16.98;7.60;;;;;;;;;;5014873;28;20033;-78
2022/09/11 08:15:17;;;;;;;12.98;7.65;;;;;;;;;;4997339;28;20033;-77
2022/09/11 08:17:43;;;;;;;12.05;7.25;;;;;;;;;;5014241;28;20060;-76
2022/09/11 08:20:08;;;;;;;13.45;6.88;;;;;;;;;;5019354;28;20037;-76
2022/09/11 08:22:34;;;;;;;12.88;7.65;;;;;;;;;;4993103;28;20033;-77
2022/09/11 08:24:59;;;;;;;11.10;7.13;;;;;;;;;;5014095;28;20038;-77
2022/09/11 08:27:26;;;;;;;12.48;7.50;;;;;;;;;;5011502;28;20060;-76
2022/09/11 08:29:55;;;;;;;11.52;7.38;;;;;;;;;;5013899;28;20029;-77
2022/09/11 08:32:23;;;;;;;11.57;6.90;;;;;;;;;;5010683;28;20061;-76
2022/09/11 08:34:48;;;;;;;14.90;8.73;;;;;;;;;;5028496;28;20117;-76
2022/09/11 08:37:14;;;;;;;11.95;7.38;;;;;;;;;;4996356;28;20583;-77
2022/09/11 08:39:40;;;;;;;12.35;7.40;;;;;;;;;;5031547;28;20771;-76
2022/09/11 08:42:14;;;;;;;12.00;7.63;;;;;;;;;;4996466;28;20108;-76
2022/09/11 08:44:49;;;;;;;14.20;7.93;;;;;;;;;;5030231;28;20084;-77
2022/09/11 08:47:23;;;;;;;12.57;7.80;;;;;;;;;;5012864;28;20037;-76
2022/09/11 08:50:02;;;;;;;13.48;7.38;;;;;;;;;;5006867;28;20484;-75
2022/09/11 08:52:28;;;;;;;14.07;7.30;;;;;;;;;;5003511;28;20071;-76
2022/09/11 08:54:55;;;;;;;11.70;7.03;;;;;;;;;;5031104;28;20061;-77
2022/09/11 08:57:21;;;;;;;;;;;;;;;;;;5008221;28;20108;-76
2022/09/11 08:59:59;;;;;;;9.87;6.40;;;;;;;;;;5013409;28;19999;-76
2022/09/11 09:02:24;;;;;;;11.75;7.05;;;;;;;;;;5004092;28;20631;-77
2022/09/11 09:05:09;;;;;;;11.05;6.97;;;;;;;;;;5013268;28;20050;-76
2022/09/11 09:07:49;;;;;;;10.57;6.70;;;;;;;;;;4986489;28;20132;-76
2022/09/11 09:10:29;;;;;;;12.73;6.93;;;;;;;;;;5029697;28;20598;-77
2022/09/11 09:13:18;;;;;;;11.38;7.28;;;;;;;;;;5027422;28;20037;-78
2022/09/11 09:15:56;;;;;;;12.82;6.97;;;;;;;;;;5029018;28;20038;-76
2022/09/11 09:18:26;;;;;;;13.15;7.22;;;;;;;;;;5030816;28;20484;-76
2022/09/11 09:21:03;;;;;;;10.40;6.50;;;;;;;;;;4985788;28;20033;-78
2022/09/11 09:23:39;;;;;;;10.25;6.75;;;;;;;;;;4989974;28;20564;-77
2022/09/11 09:26:10;;;;;;;11.15;6.70;;;;;;;;;;5012008;28;20116;-78
2022/09/11 09:28:43;;;;;;;11.00;6.53;;;;;;;;;;4996580;28;20037;-76
2022/09/11 09:31:10;;;;;;;9.82;6.15;;;;;;;;;;4998659;28;20451;-78
2022/09/11 09:33:48;;;;;;;10.10;6.25;;;;;;;;;;5029527;28;20064;-79
2022/09/11 09:36:19;;;;;;;11.23;5.95;;;;;;;;;;5028366;28;20092;-78
2022/09/11 09:38:45;;;;;;;10.02;6.70;;;;;;;;;;5030405;28;20029;-79
2022/09/11 09:41:16;;;;;;;9.13;5.95;;;;;;;;;;4996137;28;20162;-77
2022/09/11 09:43:51;;;;;;;10.25;6.32;;;;;;;;;;5014529;28;20052;-79
2022/09/11 09:46:34;;;;;;;9.23;5.60;;;;;;;;;;5028238;28;20044;-78
2022/09/11 09:49:03;;;;;;;9.63;5.97;;;;;;;;;;5006213;28;20036;-76
2022/09/11 09:51:29;;;;;;;11.50;6.82;;;;;;;;;;4994923;28;20512;-79
2022/09/11 09:53:57;;;;;;;12.45;6.57;;;;;;;;;;4995787;28;20041;-79
2022/09/11 09:56:23;;;;;;;10.20;6.78;;;;;;;;;;5017282;28;20059;-77
2022/09/11 09:59:06;;;;;;;8.90;6.13;;;;;;;;;;4995284;28;20159;-76
2022/09/11 10:01:55;;;;;;;8.63;5.65;;;;;;;;;;5024953;28;20042;-77
2022/09/11 10:04:26;;;;;;;10.57;5.88;;;;;;;;;;5006490;28;20413;-76
2022/09/11 10:07:06;;;;;;;8.73;5.53;;;;;;;;;;5011057;28;20025;-76
2022/09/11 10:09:32;;;;;;;9.25;5.50;;;;;;;;;;4988605;28;20044;-77
2022/09/11 10:12:04;;;;;;;10.63;6.00;;;;;;;;;;5010979;28;20041;-78
2022/09/11 10:14:55;;;;;;;10.43;6.25;;;;;;;;;;5026786;28;20488;-78
2022/09/11 10:17:21;;;;;;;9.18;6.07;;;;;;;;;;5028076;28;20037;-79
2022/09/11 10:19:49;;;;;;;11.57;6.80;;;;;;;;;;5014262;28;20041;-78
2022/09/11 10:22:39;;;;;;;11.43;6.45;;;;;;;;;;5009853;28;20493;-77
2022/09/11 10:25:14;;;;;;;9.57;5.82;;;;;;;;;;5009552;28;20048;-78
2022/09/11 10:27:46;;;;;;;9.20;5.72;;;;;;;;;;5022048;28;20037;-76
2022/09/11 10:30:48;;;;;;;9.27;6.05;;;;;;;;;;5025415;28;20038;-78
2022/09/11 10:33:27;;;;;;;9.52;5.97;;;;;;;;;;5009704;28;20041;-79
2022/09/11 10:35:54;;;;;;;8.35;5.47;;;;;;;;;;5008083;28;20096;-78
2022/09/11 10:38:25;;;;;;;11.70;5.85;;;;;;;;;;5010128;28;20133;-76
2022/09/11 10:41:19;;;;;;;8.98;5.43;;;;;;;;;;5009550;28;20495;-77
2022/09/11 10:43:51;;;;;;;9.52;5.78;;;;;;;;;;4994726;28;20048;-78
2022/09/11 10:46:30;;;;;;;8.20;5.20;;;;;;;;;;4997250;28;20041;-78
2022/09/11 10:49:01;;;;;;;9.88;5.35;;;;;;;;;;5006440;28;20049;-78
2022/09/11 10:51:29;;;;;;;8.88;5.07;;;;;;;;;;5023700;28;20187;-77
2022/09/11 10:54:25;;;;;;;8.13;5.25;;;;;;;;;;4994383;28;20045;-79
2022/09/11 10:56:59;;;;;;;6.83;4.23;;;;;;;;;;5028001;28;20554;-78
2022/09/11 10:59:56;;;;;;;6.28;4.13;;;;;;;;;;5002768;28;20072;-77
2022/09/11 11:02:29;;;;;;;6.40;4.30;;;;;;;;;;5025861;28;20505;-77
2022/09/11 11:05:02;;;;;;;8.30;4.63;;;;;;;;;;5021728;28;20591;-77
2022/09/11 11:07:59;;;;;;;6.88;4.75;;;;;;;;;;5004470;28;20060;-78
2022/09/11 11:10:39;;;;;;;9.02;5.00;;;;;;;;;;5008112;28;20041;-78
2022/09/11 11:13:23;;;;;;;8.65;5.00;;;;;;;;;;4993320;28;20065;-77
2022/09/11 11:16:21;;;;;;;8.13;4.82;;;;;;;;;;5027672;28;20026;-77
2022/09/11 11:19:15;;;;;;;8.77;4.70;;;;;;;;;;4957774;28;20043;-76
2022/09/11 11:21:59;;;;;;;8.27;5.28;;;;;;;;;;4963012;28;20059;-78
2022/09/11 11:24:45;;;;;;;8.63;5.32;;;;;;;;;;4974412;28;20433;-77
2022/09/11 11:27:26;;;;;;;7.00;4.63;;;;;;;;;;4972737;28;20035;-77
2022/09/11 11:30:10;;;;;;;10.23;4.60;;;;;;;;;;4958677;28;20089;-78
2022/09/11 11:33:00;;;;;;;6.72;4.28;;;;;;;;;;4971343;28;20045;-77
2022/09/11 11:35:35;;;;;;;5.93;3.95;;;;;;;;;;4973170;28;20069;-77
2022/09/11 11:38:11;;;;;;;7.43;4.40;;;;;;;;;;4974394;28;20136;-76
2022/09/11 11:40:48;;;;;;;7.43;4.25;;;;;;;;;;4972863;28;20905;-78
2022/09/11 11:43:16;;;;;;;6.35;3.83;;;;;;;;;;4958019;28;20613;-77
2022/09/11 11:46:00;;;;;;;8.10;4.25;;;;;;;;;;4963229;28;21392;-77
2022/09/11 11:48:51;;;;;;;6.03;3.72;;;;;;;;;;4957039;28;20054;-77
2022/09/11 11:51:19;;;;;;;5.90;4.00;;;;;;;;;;4972716;28;20046;-76
2022/09/11 11:54:01;;;;;;;6.80;3.80;;;;;;;;;;4964403;28;20034;-77
2022/09/11 11:56:52;;;;;;;6.53;3.83;;;;;;;;;;5009113;28;20535;-76
2022/09/11 11:59:32;;;;;;;5.88;3.72;;;;;;;;;;5010952;28;20035;-77
2022/09/11 12:02:04;;;;;;;7.80;3.83;;;;;;;;;;5011234;28;20121;-77
2022/09/11 12:04:59;;;;;;;6.85;4.35;;;;;;;;;;5013424;28;20041;-76
2022/09/11 12:07:30;;;;;;;6.00;4.15;;;;;;;;;;5032146;28;20120;-76
2022/09/11 12:09:57;;;;;;;6.88;4.18;;;;;;;;;;5016408;28;20037;-77
2022/09/11 12:12:23;;;;;;;;;;;;;;;;;;5016208;28;20034;-76
2022/09/11 12:14:52;;;;;;;6.55;4.22;;;;;;;;;;4998428;28;20732;-78
2022/09/11 12:17:24;;;;;;;6.05;3.95;;;;;;;;;;5018957;28;20404;-77
2022/09/11 12:20:08;;;;;;;7.05;4.00;;;;;;;;;;5015740;28;20033;-75
2022/09/11 12:22:47;;;;;;;6.85;3.95;;;;;;;;;;5034401;28;20034;-76
2022/09/11 12:25:21;;;;;;;7.63;4.07;;;;;;;;;;5003953;28;20499;-76
2022/09/11 12:27:51;;;;;;;5.97;3.28;;;;;;;;;;5030820;28;20043;-76
2022/09/11 12:30:23;;;;;;;4.75;2.90;;;;;;;;;;4981630;28;20025;-77
2022/09/11 12:32:53;;;;;;;5.72;3.40;;;;;;;;;;4993581;28;20046;-76
2022/09/11 12:35:22;;;;;;;6.38;3.05;;;;;;;;;;5028721;28;20451;-76
2022/09/11 12:38:16;;;;;;;4.78;2.72;;;;;;;;;;5015804;28;20120;-75
2022/09/11 12:40:55;;;;;;;4.93;2.83;;;;;;;;;;5000682;28;20046;-77
2022/09/11 12:43:36;;;;;;;5.00;3.10;;;;;;;;;;5028691;28;20551;-76
2022/09/11 12:46:29;;;;;;;5.13;3.40;;;;;;;;;;5012398;28;20029;-76
2022/09/11 12:49:17;;;;;;;5.07;3.13;;;;;;;;;;4974228;28;20033;-75
2022/09/11 12:51:53;;;;;;;5.32;3.30;;;;;;;;;;4986150;28;20052;-75
2022/09/11 12:54:24;;;;;;;4.68;2.88;;;;;;;;;;5012734;28;20052;-77
2022/09/11 12:56:52;;;;;;;7.40;3.53;;;;;;;;;;5008830;28;20052;-78
2022/09/11 12:59:29;;;;;;;5.88;3.20;;;;;;;;;;4996431;28;20463;-76
2022/09/11 13:01:56;;;;;;;3.92;2.65;;;;;;;;;;5026341;28;20056;-76
2022/09/11 13:04:25;;;;;;;5.50;3.50;;;;;;;;;;4997074;28;20049;-75
2022/09/11 13:06:53;;;;;;;4.30;3.00;;;;;;;;;;4993810;28;20060;-77
2022/09/11 13:09:24;;;;;;;5.10;3.30;;;;;;;;;;5013224;28;20036;-77
2022/09/11 13:11:55;;;;;;;4.72;3.20;;;;;;;;;;5028411;28;20169;-75
2022/09/11 13:14:27;;;;;;;5.20;3.25;;;;;;;;;;4996998;28;20026;-76
2022/09/11 13:16:56;;;;;;;6.63;3.47;;;;;;;;;;5017231;28;20063;-75
2022/09/11 13:19:21;;;;;;;6.13;3.80;;;;;;;;;;5008580;28;20056;-76
2022/09/11 13:21:50;;;;;;;5.78;3.85;;;;;;;;;;4985926;28;20034;-76
2022/09/11 13:24:25;;;;;;;6.18;3.97;;;;;;;;;;4993333;28;20044;-83
2022/09/11 13:26:58;;;;;;;8.23;4.10;;;;;;;;;;4991519;28;20627;-82
2022/09/11 13:29:25;;;;;;;6.15;4.15;;;;;;;;;;5009902;28;20578;-82
2022/09/11 13:31:51;;;;;;;5.15;3.45;;;;;;;;;;4994320;28;20037;-82
2022/09/11 13:34:19;;;;;;;5.57;3.30;;;;;;;;;;4984261;28;20029;-82
2022/09/11 13:36:46;;;;;;;6.10;3.70;;;;;;;;;;4980573;28;20071;-81
2022/09/11 13:39:14;;;;;;;5.05;3.15;;;;;;;;;;4986025;28;20057;-84
2022/09/11 13:41:45;;;;;;;5.38;3.55;;;;;;;;;;4992011;28;20033;-84
2022/09/11 13:44:28;;;;;;;4.93;3.05;;;;;;;;;;4970967;28;20029;-84
2022/09/11 13:46:54;;;;;;;5.78;3.53;;;;;;;;;;5006452;28;20030;-84
2022/09/11 13:49:40;;;;;;;5.25;2.80;;;;;;;;;;4993458;28;20033;-83
2022/09/11 13:52:09;;;;;;;3.80;2.35;;;;;;;;;;4992821;28;20505;-84
2022/09/11 13:57:59;;;;;;;4.78;2.58;;;;;;;;;;4918089;28;20715;-86
2022/09/11 14:00:50;;;;;;;4.38;2.40;;;;;;;;;;4974371;28;20026;-83
2022/09/11 14:03:30;;;;;;;3.63;2.17;;;;;;;;;;4994839;28;20041;-84
2022/09/11 14:06:00;;;;;;;4.65;2.08;;;;;;;;;;4990139;28;20496;-83
2022/09/11 14:08:37;;;;;;;4.30;2.30;;;;;;;;;;5007345;28;20049;-85
2022/09/11 14:11:06;;;;;;;4.00;2.20;;;;;;;;;;5007406;28;20033;-81
2022/09/11 14:13:42;;;;;;;4.53;2.20;;;;;;;;;;5008445;28;20064;-81
2022/09/11 14:16:15;;;;;;;4.50;2.50;;;;;;;;;;5007519;28;20559;-81
2022/09/11 14:18:51;;;;;;;5.68;2.65;;;;;;;;;;5024553;28;20038;-80
2022/09/11 14:21:23;;;;;;;5.00;2.80;;;;;;;;;;5022709;28;20033;-81
2022/09/11 14:23:53;;;;;;;4.95;2.55;;;;;;;;;;5007245;28;20823;-81
2022/09/11 14:26:29;;;;;;;5.22;2.53;;;;;;;;;;4983534;28;20123;-81
2022/09/11 14:28:55;;;;;;;3.70;2.13;;;;;;;;;;5023978;28;20041;-81
2022/09/11 14:31:29;;;;;;;4.35;2.50;;;;;;;;;;5006344;28;20037;-81
2022/09/11 14:34:20;;;;;;;4.03;2.20;;;;;;;;;;5003709;28;20033;-81
2022/09/11 14:36:49;;;;;;;4.95;2.45;;;;;;;;;;5005421;28;20460;-80
2022/09/11 14:39:22;;;;;;;4.03;2.10;;;;;;;;;;5022067;28;20119;-82
2022/09/11 14:41:48;;;;;;;4.32;2.50;;;;;;;;;;5005583;28;20087;-81
2022/09/11 14:44:15;;;;;;;6.45;2.50;;;;;;;;;;4999298;28;20444;-81
2022/09/11 14:46:43;;;;;;;5.00;2.80;;;;;;;;;;4974986;28;20583;-80
2022/09/11 14:49:09;;;;;;;5.28;2.75;;;;;;;;;;4998816;28;20044;-82
2022/09/11 14:51:40;;;;;;;4.95;2.83;;;;;;;;;;4989840;28;20038;-82
2022/09/11 14:54:07;;;;;;;4.82;2.47;;;;;;;;;;4990159;28;20084;-80
2022/09/11 14:56:33;;;;;;;4.25;2.60;;;;;;;;;;5005868;28;20043;-81
2022/09/11 14:58:58;;;;;;;5.18;2.80;;;;;;;;;;5006865;28;20037;-80
2022/09/11 15:01:25;;;;;;;4.65;2.78;;;;;;;;;;4990648;28;20091;-81
2022/09/11 15:03:51;;;;;;;4.88;3.03;;;;;;;;;;4983693;28;20619;-80